createdAt,value
2023-04-07T00:00:54.343Z,11.63
2023-04-07T00:03:24.903Z,11.67
2023-04-07T00:05:55.692Z,11.23
2023-04-07T00:08:25.875Z,12.43
2023-04-07T00:10:58.777Z,9.60
2023-04-07T00:13:30.641Z,11.30
2023-04-07T00:16:01.294Z,15.73
2023-04-07T00:18:31.644Z,10.20
2023-04-07T00:21:01.905Z,10.10
2023-04-07T00:23:32.251Z,9.87
2023-04-07T00:26:05.198Z,10.67
2023-04-07T00:28:35.392Z,9.63
2023-04-07T00:31:05.751Z,8.07
2023-04-07T00:33:36.032Z,9.67
2023-04-07T00:36:06.541Z,9.87
2023-04-07T00:38:36.822Z,8.10
2023-04-07T00:41:09.804Z,10.13
2023-04-07T00:43:41.565Z,8.97
2023-04-07T00:46:18.215Z,7.80
2023-04-07T00:48:48.666Z,7.37
2023-04-07T00:51:19.669Z,9.83
2023-04-07T00:53:49.998Z,8.67
2023-04-07T00:56:23.093Z,9.87
2023-04-07T00:58:55.738Z,9.80
2023-04-07T01:01:33.972Z,8.73
2023-04-07T01:04:12.057Z,8.20
2023-04-07T01:06:50.386Z,6.97
2023-04-07T01:09:28.296Z,8.77
2023-04-07T01:12:10.748Z,6.83
2023-04-07T01:14:53.770Z,6.63
2023-04-07T01:17:31.435Z,6.90
2023-04-07T01:20:08.395Z,5.87
2023-04-07T01:22:48.605Z,7.40
2023-04-07T01:25:40.246Z,9.67
2023-04-07T01:28:48.042Z,10.03
2023-04-07T01:31:21.647Z,9.20
2023-04-07T01:33:55.878Z,10.00
2023-04-07T01:36:31.865Z,8.80
2023-04-07T01:39:03.438Z,10.93
2023-04-07T01:41:35.395Z,11.73
2023-04-07T01:44:06.943Z,12.70
2023-04-07T01:46:40.113Z,12.33
2023-04-07T01:49:11.287Z,14.30
2023-04-07T01:51:43.550Z,13.63
2023-04-07T01:54:14.066Z,16.03
2023-04-07T01:56:45.494Z,14.27
2023-04-07T01:59:16.214Z,16.20
2023-04-07T02:01:49.178Z,16.10
2023-04-07T02:04:28.775Z,18.87
2023-04-07T02:07:07.723Z,19.33
2023-04-07T02:09:42.608Z,17.67
2023-04-07T02:12:17.368Z,16.93
2023-04-07T02:14:49.603Z,17.37
2023-04-07T02:17:22.845Z,17.47
2023-04-07T02:19:55.833Z,17.97
2023-04-07T02:22:26.041Z,19.10
2023-04-07T02:24:56.244Z,21.23
2023-04-07T02:27:26.434Z,22.10
2023-04-07T02:29:57.092Z,19.33
2023-04-07T02:32:29.890Z,20.57
2023-04-07T02:35:00.336Z,23.83
2023-04-07T02:37:30.520Z,22.30
2023-04-07T02:40:01.567Z,23.20
2023-04-07T02:42:31.828Z,21.57
2023-04-07T02:45:02.269Z,22.77
2023-04-07T02:47:35.476Z,22.80
2023-04-07T02:50:06.238Z,22.27
2023-04-07T02:52:40.873Z,24.80
2023-04-07T02:55:14.860Z,22.77
2023-04-07T02:57:45.044Z,22.93
2023-04-07T03:00:17.384Z,22.50
2023-04-07T03:02:50.218Z,23.30
2023-04-07T03:05:23.137Z,22.63
2023-04-07T03:07:53.361Z,26.10
2023-04-07T03:10:23.684Z,24.77
2023-04-07T03:12:54.092Z,28.27
2023-04-07T03:15:24.304Z,29.53
2023-04-07T03:17:57.054Z,27.13
2023-04-07T03:20:27.405Z,24.20
2023-04-07T03:22:57.614Z,25.73
2023-04-07T03:25:29.600Z,28.53
2023-04-07T03:27:59.930Z,30.07
2023-04-07T03:30:30.623Z,29.60
2023-04-07T03:33:03.445Z,26.20
2023-04-07T03:35:33.814Z,26.23
2023-04-07T03:38:04.014Z,30.70
2023-04-07T03:40:35.893Z,31.67
2023-04-07T03:43:06.216Z,29.70
2023-04-07T03:45:37.329Z,30.00
2023-04-07T03:48:12.019Z,30.87
2023-04-07T03:50:43.825Z,29.63
2023-04-07T03:53:14.684Z,32.67
2023-04-07T03:55:45.454Z,33.10
2023-04-07T03:58:16.813Z,35.00
2023-04-07T04:00:47.734Z,31.20
2023-04-07T04:03:20.851Z,30.17
2023-04-07T04:05:51.404Z,37.83
2023-04-07T04:08:21.726Z,30.30
2023-04-07T04:10:59.336Z,35.27
2023-04-07T04:13:29.628Z,29.40
2023-04-07T04:15:59.849Z,38.93
2023-04-07T04:18:34.217Z,33.13
2023-04-07T04:21:04.400Z,30.77
2023-04-07T04:23:34.696Z,31.53
2023-04-07T04:26:05.498Z,35.90
2023-04-07T04:28:35.924Z,36.97
2023-04-07T04:31:06.205Z,36.40
2023-04-07T04:33:42.287Z,37.13
2023-04-07T04:36:12.645Z,34.70
2023-04-07T04:38:45.302Z,35.53
2023-04-07T04:41:15.632Z,36.80
2023-04-07T04:43:47.455Z,36.07
2023-04-07T04:46:18.477Z,38.90
2023-04-07T04:48:52.219Z,36.13
2023-04-07T04:51:23.562Z,35.43
2023-04-07T04:53:54.263Z,35.10
2023-04-07T04:56:26.118Z,33.77
2023-04-07T04:58:56.472Z,33.47
2023-04-07T05:01:26.698Z,34.10
2023-04-07T05:04:00.184Z,35.83
2023-04-07T05:06:31.180Z,30.87
2023-04-07T05:09:01.454Z,31.73
2023-04-07T05:11:31.712Z,38.20
2023-04-07T05:14:01.912Z,34.03
2023-04-07T05:16:32.149Z,31.33
2023-04-07T05:19:09.357Z,29.50
2023-04-07T05:21:39.507Z,31.67
2023-04-07T05:24:10.077Z,33.87
2023-04-07T05:26:41.161Z,32.97
2023-04-07T05:29:11.552Z,30.90
2023-04-07T05:31:41.801Z,28.63
2023-04-07T05:34:14.910Z,29.77
2023-04-07T05:36:45.061Z,35.43
2023-04-07T05:39:15.315Z,32.47
2023-04-07T05:41:45.516Z,30.77
2023-04-07T05:44:15.758Z,32.13
2023-04-07T05:46:45.996Z,30.87
2023-04-07T05:49:21.735Z,32.50
2023-04-07T05:51:52.034Z,30.63
2023-04-07T05:54:22.213Z,32.07
2023-04-07T05:56:52.552Z,36.77
2023-04-07T05:59:22.798Z,32.23
2023-04-07T06:01:53.177Z,27.10
2023-04-07T06:04:25.964Z,27.57
2023-04-07T06:06:56.714Z,24.97
2023-04-07T06:09:29.769Z,28.50
2023-04-07T06:12:01.948Z,26.27
2023-04-07T06:14:34.384Z,29.40
2023-04-07T06:17:04.717Z,26.13
2023-04-07T06:19:37.688Z,26.23
2023-04-07T06:22:07.869Z,28.10
2023-04-07T06:24:38.998Z,28.43
2023-04-07T06:27:09.543Z,25.87
2023-04-07T06:29:40.053Z,24.73
2023-04-07T06:32:11.650Z,28.70
2023-04-07T06:34:45.740Z,25.20
2023-04-07T06:37:17.156Z,24.30
2023-04-07T06:39:48.528Z,25.27
2023-04-07T06:42:18.743Z,25.33
2023-04-07T06:44:49.048Z,27.03
2023-04-07T06:47:19.255Z,24.77
2023-04-07T06:49:52.435Z,26.77
2023-04-07T06:52:22.581Z,24.10
2023-04-07T06:54:52.828Z,28.47
2023-04-07T06:57:23.031Z,25.50
2023-04-07T06:59:53.322Z,27.00
2023-04-07T07:02:23.624Z,26.27
2023-04-07T07:04:56.552Z,23.40
2023-04-07T07:07:26.828Z,25.87
2023-04-07T07:10:00.203Z,24.70
2023-04-07T07:12:30.438Z,29.20
2023-04-07T07:15:00.699Z,26.37
2023-04-07T07:17:38.330Z,25.77
2023-04-07T07:20:13.841Z,24.70
2023-04-07T07:22:44.515Z,22.23
2023-04-07T07:25:16.288Z,24.13
2023-04-07T07:27:47.559Z,32.23
2023-04-07T07:30:17.986Z,21.77
2023-04-07T07:32:48.197Z,19.20
2023-04-07T07:35:21.268Z,15.33
2023-04-07T07:37:52.100Z,17.63
2023-04-07T07:40:25.012Z,12.17
2023-04-07T07:42:57.744Z,16.10
2023-04-07T07:45:28.224Z,12.27
2023-04-07T07:47:58.564Z,11.20
2023-04-07T07:50:31.471Z,9.87
2023-04-07T07:53:01.639Z,9.93
2023-04-07T07:55:32.003Z,8.97
2023-04-07T07:58:02.213Z,8.80
2023-04-07T08:00:32.444Z,9.33
2023-04-07T08:03:02.794Z,10.20
2023-04-07T08:05:35.684Z,8.37
2023-04-07T08:08:06.019Z,7.33
2023-04-07T08:10:36.184Z,9.57
2023-04-07T08:13:07.787Z,7.27
2023-04-07T08:15:37.993Z,8.10
2023-04-07T08:18:08.470Z,8.63
2023-04-07T08:20:43.474Z,7.43
2023-04-07T08:23:13.761Z,6.93
2023-04-07T08:25:44.081Z,9.30
2023-04-07T08:28:17.356Z,7.90
2023-04-07T08:30:49.951Z,9.43
2023-04-07T08:33:20.137Z,7.70
2023-04-07T08:35:52.929Z,9.97
2023-04-07T08:38:23.160Z,9.70
2023-04-07T08:41:03.087Z,10.00
2023-04-07T08:43:35.927Z,9.97
2023-04-07T08:46:06.864Z,10.43
2023-04-07T08:48:39.621Z,9.43
2023-04-07T08:51:16.505Z,10.37
2023-04-07T08:53:52.777Z,10.93
2023-04-07T08:56:24.511Z,13.40
2023-04-07T08:58:55.994Z,13.37
2023-04-07T09:01:27.953Z,8.33
2023-04-07T09:04:00.810Z,10.10
2023-04-07T09:06:34.813Z,7.77
2023-04-07T09:09:06.746Z,7.83
2023-04-07T09:11:42.075Z,7.47
2023-04-07T09:14:12.416Z,7.57
2023-04-07T09:16:43.091Z,8.03
2023-04-07T09:19:13.345Z,8.97
2023-04-07T09:22:15.075Z,6.27
2023-04-07T09:24:45.727Z,8.33
2023-04-07T09:27:18.126Z,7.23
2023-04-07T09:29:50.583Z,6.03
2023-04-07T09:32:41.576Z,7.27
2023-04-07T09:35:12.908Z,10.80
2023-04-07T09:37:45.919Z,5.37
2023-04-07T09:40:29.975Z,5.73
2023-04-07T09:43:03.516Z,5.50
2023-04-07T09:45:37.198Z,7.77
2023-04-07T09:48:22.991Z,6.97
2023-04-07T09:50:53.394Z,13.47
2023-04-07T09:53:46.836Z,6.03
2023-04-07T09:56:22.572Z,9.13
2023-04-07T09:58:54.337Z,7.37
2023-04-07T10:01:25.534Z,7.93
2023-04-07T10:03:57.105Z,6.57
2023-04-07T10:06:33.212Z,7.70
2023-04-07T10:09:09.433Z,13.77
2023-04-07T10:11:41.078Z,7.10
2023-04-07T10:14:12.912Z,12.03
2023-04-07T10:16:46.147Z,10.23
2023-04-07T10:19:18.094Z,11.40
2023-04-07T10:21:49.392Z,10.97
2023-04-07T10:24:45.360Z,11.20
2023-04-07T10:27:22.752Z,12.00
2023-04-07T10:29:58.123Z,10.00
2023-04-07T10:32:29.990Z,13.13
2023-04-07T10:35:03.960Z,11.33
2023-04-07T10:37:37.561Z,11.00
2023-04-07T10:40:34.650Z,11.93
2023-04-07T10:43:05.312Z,10.87
2023-04-07T10:46:02.194Z,13.73
2023-04-07T10:48:33.890Z,9.43
2023-04-07T10:51:21.099Z,13.00
2023-04-07T10:54:23.257Z,14.03
2023-04-07T10:57:17.227Z,14.50
2023-04-07T11:00:19.221Z,10.17
2023-04-07T11:02:49.761Z,9.57
2023-04-07T11:05:25.932Z,11.80
2023-04-07T11:07:59.491Z,11.00
2023-04-07T11:10:29.909Z,9.98
2023-04-07T11:13:10.629Z,11.52
2023-04-07T11:15:41.962Z,8.32
2023-04-07T11:18:22.027Z,9.38
2023-04-07T11:20:58.791Z,9.13
2023-04-07T11:23:30.035Z,7.32
2023-04-07T11:26:06.257Z,6.32
2023-04-07T11:28:49.087Z,6.72
2023-04-07T11:31:26.054Z,9.02
2023-04-07T11:33:59.104Z,8.35
2023-04-07T11:36:34.686Z,9.35
2023-04-07T11:39:06.100Z,9.52
2023-04-07T11:41:48.644Z,11.00
2023-04-07T11:44:26.056Z,9.40
2023-04-07T11:46:57.641Z,11.68
2023-04-07T11:49:32.611Z,10.27
2023-04-07T11:52:06.965Z,7.82
2023-04-07T11:54:47.014Z,9.25
2023-04-07T11:57:26.651Z,9.63
2023-04-07T12:00:17.077Z,13.85
2023-04-07T12:02:47.679Z,11.30
2023-04-07T12:05:25.370Z,9.93
2023-04-07T12:07:58.624Z,10.35
2023-04-07T12:10:29.646Z,9.30
2023-04-07T12:12:59.930Z,10.55
2023-04-07T12:15:35.143Z,10.00
2023-04-07T12:18:10.816Z,10.27
2023-04-07T12:20:41.563Z,11.70
2023-04-07T12:23:11.849Z,13.63
2023-04-07T12:25:42.123Z,13.10
2023-04-07T12:28:14.621Z,12.07
2023-04-07T12:30:49.540Z,14.93
2023-04-07T12:33:19.849Z,14.10
2023-04-07T12:35:50.589Z,13.00
2023-04-07T12:38:21.098Z,13.87
2023-04-07T12:40:51.865Z,16.63
2023-04-07T12:43:22.127Z,13.83
2023-04-07T12:45:54.940Z,14.93
2023-04-07T12:48:26.895Z,12.52
2023-04-07T12:50:57.494Z,14.20
2023-04-07T12:53:27.774Z,16.48
2023-04-07T12:55:58.120Z,15.27
2023-04-07T12:58:28.589Z,13.80
2023-04-07T13:01:01.678Z,15.27
2023-04-07T13:03:32.021Z,15.05
2023-04-07T13:06:02.694Z,15.32
2023-04-07T13:08:33.132Z,18.73
2023-04-07T13:11:05.624Z,16.67
2023-04-07T13:13:36.833Z,15.05
2023-04-07T13:16:09.687Z,18.13
2023-04-07T13:18:39.880Z,17.08
2023-04-07T13:21:42.646Z,16.30
2023-04-07T13:24:00.290Z,18.88
2023-04-07T13:26:31.387Z,15.65
2023-04-07T13:29:01.593Z,15.63
2023-04-07T13:31:34.436Z,18.35
2023-04-07T13:34:04.734Z,17.25
2023-04-07T13:36:35.105Z,18.80
2023-04-07T13:39:05.376Z,16.17
2023-04-07T13:41:35.629Z,13.02
2023-04-07T13:44:06.251Z,15.90
2023-04-07T13:46:39.181Z,15.48
2023-04-07T13:49:09.389Z,15.02
2023-04-07T13:51:39.628Z,14.05
2023-04-07T13:54:10.069Z,12.82
2023-04-07T13:56:42.438Z,16.85
2023-04-07T13:59:12.719Z,11.82
2023-04-07T14:01:45.603Z,12.88
2023-04-07T14:04:17.559Z,14.85
2023-04-07T14:06:47.871Z,13.70
2023-04-07T14:09:18.152Z,16.05
2023-04-07T14:11:48.956Z,14.35
2023-04-07T14:14:19.132Z,14.23
2023-04-07T14:16:52.799Z,13.70
2023-04-07T14:19:25.045Z,11.50
2023-04-07T14:21:55.421Z,15.45
2023-04-07T14:24:25.699Z,14.63
2023-04-07T14:26:56.367Z,12.13
2023-04-07T14:29:26.719Z,14.18
2023-04-07T14:31:59.584Z,13.85
2023-04-07T14:34:29.847Z,16.35
2023-04-07T14:37:01.656Z,44.08
2023-04-07T14:39:31.951Z,16.23
2023-04-07T14:42:02.201Z,16.33
2023-04-07T14:44:33.292Z,14.57
2023-04-07T14:47:06.124Z,13.45
2023-04-07T14:49:38.842Z,13.88
2023-04-07T14:52:09.330Z,12.82
2023-04-07T14:54:39.581Z,13.48
2023-04-07T14:57:10.023Z,11.25
2023-04-07T14:59:40.361Z,12.93
2023-04-07T15:02:15.847Z,12.35
2023-04-07T15:04:46.319Z,13.77
2023-04-07T15:07:16.818Z,11.73
2023-04-07T15:09:47.111Z,10.45
2023-04-07T15:12:17.399Z,9.02
2023-04-07T15:14:48.767Z,12.77
2023-04-07T15:17:25.485Z,10.75
2023-04-07T15:20:03.552Z,12.10
2023-04-07T15:22:33.833Z,12.68
2023-04-07T15:25:04.072Z,13.73
2023-04-07T15:27:34.273Z,16.08
2023-04-07T15:30:04.635Z,18.95
2023-04-07T15:32:37.526Z,14.95
2023-04-07T15:35:11.500Z,21.50
2023-04-07T15:37:41.848Z,19.20
2023-04-07T15:40:13.605Z,21.88
2023-04-07T15:42:43.824Z,18.25
2023-04-07T15:45:17.417Z,17.27
2023-04-07T15:47:50.561Z,18.17
2023-04-07T15:50:22.228Z,19.38
2023-04-07T15:52:55.248Z,16.17
2023-04-07T15:55:25.706Z,17.48
2023-04-07T15:57:55.944Z,15.98
2023-04-07T16:00:26.322Z,13.70
2023-04-07T16:02:59.442Z,12.82
2023-04-07T16:05:30.047Z,14.20
2023-04-07T16:08:00.734Z,10.50
2023-04-07T16:10:30.996Z,12.82
2023-04-07T16:13:01.324Z,15.68
2023-04-07T16:15:40.030Z,13.75
2023-04-07T16:18:14.894Z,12.40
2023-04-07T16:20:45.509Z,11.10
2023-04-07T16:23:16.015Z,12.10
2023-04-07T16:25:46.194Z,16.90
2023-04-07T16:28:17.226Z,42.93
2023-04-07T16:30:47.484Z,49.88
2023-04-07T16:33:20.640Z,79.85
2023-04-07T16:35:51.208Z,127.05
2023-04-07T16:38:21.509Z,39.77
2023-04-07T16:41:03.321Z,42.55
2023-04-07T16:43:34.494Z,35.78
2023-04-07T16:46:06.030Z,39.20
2023-04-07T16:48:38.913Z,27.75
2023-04-07T16:51:09.937Z,40.92
2023-04-07T16:53:40.185Z,60.63
2023-04-07T16:56:18.280Z,30.90
2023-04-07T16:58:48.946Z,16.98
2023-04-07T17:01:19.540Z,26.33
2023-04-07T17:03:53.053Z,16.50
2023-04-07T17:06:23.473Z,17.55
2023-04-07T17:08:53.820Z,13.85
2023-04-07T17:11:24.054Z,17.70
2023-04-07T17:13:57.534Z,21.52
2023-04-07T17:16:28.005Z,18.60
2023-04-07T17:19:00.892Z,17.40
2023-04-07T17:21:31.433Z,15.10
2023-04-07T17:24:04.674Z,16.25
2023-04-07T17:26:34.896Z,14.45
2023-04-07T17:29:05.175Z,11.47
2023-04-07T17:31:36.302Z,12.80
2023-04-07T17:34:09.377Z,13.73
2023-04-07T17:36:41.032Z,12.27
2023-04-07T17:39:11.441Z,13.10
2023-04-07T17:41:41.797Z,9.07
2023-04-07T17:44:12.186Z,10.73
2023-04-07T17:46:42.510Z,11.80
2023-04-07T17:49:15.909Z,13.67
2023-04-07T17:51:46.134Z,9.80
2023-04-07T17:54:20.038Z,8.07
2023-04-07T17:56:50.368Z,9.73
2023-04-07T17:59:20.716Z,10.37
2023-04-07T18:01:51.448Z,11.85
2023-04-07T18:04:26.253Z,10.87
2023-04-07T18:06:56.624Z,12.23
2023-04-07T18:09:28.753Z,12.13
2023-04-07T18:11:59.019Z,9.70
2023-04-07T18:14:31.440Z,11.90
2023-04-07T18:17:01.655Z,10.80
2023-04-07T18:19:34.402Z,10.13
2023-04-07T18:22:04.662Z,12.80
2023-04-07T18:24:34.858Z,13.87
2023-04-07T18:27:06.447Z,11.50
2023-04-07T18:29:37.660Z,8.90
2023-04-07T18:32:08.105Z,16.87
2023-04-07T18:34:41.459Z,11.43
2023-04-07T18:37:11.849Z,9.70
2023-04-07T18:39:42.074Z,13.70
2023-04-07T18:42:12.617Z,15.20
2023-04-07T18:44:44.863Z,13.33
2023-04-07T18:47:15.577Z,15.33
2023-04-07T18:49:53.227Z,17.97
2023-04-07T18:52:23.499Z,14.53
2023-04-07T18:54:53.642Z,17.97
2023-04-07T18:57:23.844Z,15.87
2023-04-07T18:59:54.073Z,16.27
2023-04-07T19:02:26.526Z,16.40
2023-04-07T19:04:59.996Z,18.43
2023-04-07T19:07:30.214Z,13.43
2023-04-07T19:10:00.448Z,17.27
2023-04-07T19:12:30.704Z,15.57
2023-04-07T19:15:00.892Z,15.40
2023-04-07T19:17:31.905Z,20.13
2023-04-07T19:20:05.011Z,16.77
2023-04-07T19:22:37.872Z,13.53
2023-04-07T19:25:10.055Z,15.33
2023-04-07T19:27:40.329Z,14.93
2023-04-07T19:30:12.943Z,16.60
2023-04-07T19:32:48.039Z,14.97
2023-04-07T19:35:21.699Z,18.23
2023-04-07T19:37:52.556Z,14.10
2023-04-07T19:40:24.023Z,15.10
2023-04-07T19:42:54.919Z,15.50
2023-04-07T19:45:25.137Z,19.20
2023-04-07T19:47:56.994Z,16.20
2023-04-07T19:50:30.259Z,17.60
2023-04-07T19:53:00.490Z,17.30
2023-04-07T19:55:30.704Z,18.43
2023-04-07T19:58:00.924Z,14.23
2023-04-07T20:00:33.125Z,18.07
2023-04-07T20:03:04.007Z,18.90
2023-04-07T20:05:38.422Z,13.90
2023-04-07T20:08:08.661Z,18.00
2023-04-07T20:10:38.855Z,16.03
2023-04-07T20:13:09.311Z,13.57
2023-04-07T20:15:40.308Z,12.00
2023-04-07T20:18:11.285Z,16.93
2023-04-07T20:20:44.142Z,15.30
2023-04-07T20:23:16.129Z,14.13
2023-04-07T20:25:46.437Z,15.20
2023-04-07T20:28:16.688Z,13.07
2023-04-07T20:30:47.106Z,15.57
2023-04-07T20:33:17.358Z,18.77
2023-04-07T20:35:50.357Z,12.03
2023-04-07T20:38:20.761Z,16.77
2023-04-07T20:40:53.853Z,13.83
2023-04-07T20:43:24.523Z,19.23
2023-04-07T20:45:54.930Z,15.23
2023-04-07T20:48:26.068Z,14.57
2023-04-07T20:50:59.329Z,16.33
2023-04-07T20:53:31.895Z,16.73
2023-04-07T20:56:03.099Z,14.23
2023-04-07T20:58:33.457Z,15.77
2023-04-07T21:01:04.171Z,16.50
2023-04-07T21:03:35.998Z,16.90
2023-04-07T21:06:11.955Z,16.40
2023-04-07T21:08:42.339Z,15.30
2023-04-07T21:11:12.504Z,13.77
2023-04-07T21:13:42.932Z,15.80
2023-04-07T21:16:13.331Z,17.10
2023-04-07T21:18:43.588Z,16.77
2023-04-07T21:21:19.123Z,17.03
2023-04-07T21:23:49.558Z,19.97
2023-04-07T21:26:19.817Z,16.67
2023-04-07T21:28:50.432Z,14.63
2023-04-07T21:31:24.429Z,17.83
2023-04-07T21:33:55.500Z,14.20
2023-04-07T21:36:28.309Z,16.50
2023-04-07T21:38:58.651Z,20.60
2023-04-07T21:41:28.870Z,17.23
2023-04-07T21:43:59.218Z,16.67
2023-04-07T21:46:29.642Z,17.77
2023-04-07T21:48:59.957Z,18.30
2023-04-07T21:51:33.647Z,13.90
2023-04-07T21:54:04.204Z,16.40
2023-04-07T21:56:34.476Z,17.13
2023-04-07T21:59:04.825Z,14.27
2023-04-07T22:01:35.071Z,16.70
2023-04-07T22:04:05.517Z,12.77
2023-04-07T22:06:38.406Z,15.83
2023-04-07T22:09:11.731Z,12.50
2023-04-07T22:11:41.975Z,12.93
2023-04-07T22:14:12.175Z,16.10
2023-04-07T22:16:44.604Z,13.10
2023-04-07T22:19:14.787Z,14.33
2023-04-07T22:21:47.745Z,17.77
2023-04-07T22:24:18.020Z,15.63
2023-04-07T22:26:48.209Z,15.70
2023-04-07T22:29:21.227Z,15.63
2023-04-07T22:31:51.482Z,19.37
2023-04-07T22:34:21.886Z,17.53
2023-04-07T22:36:54.866Z,13.63
2023-04-07T22:39:25.026Z,15.20
2023-04-07T22:41:57.484Z,18.60
2023-04-07T22:44:27.723Z,21.23
2023-04-07T22:46:59.110Z,16.80
2023-04-07T22:49:29.452Z,15.87
2023-04-07T22:52:02.277Z,17.40
2023-04-07T22:54:32.427Z,17.10
2023-04-07T22:57:02.611Z,15.73
2023-04-07T22:59:34.026Z,15.80
2023-04-07T23:02:04.485Z,18.17
2023-04-07T23:04:34.725Z,16.63
2023-04-07T23:07:07.535Z,19.03
2023-04-07T23:09:37.725Z,20.13
2023-04-07T23:12:08.015Z,14.40
2023-04-07T23:14:38.224Z,15.00
2023-04-07T23:17:08.639Z,17.10
2023-04-07T23:19:38.805Z,15.57
2023-04-07T23:22:12.579Z,20.67
2023-04-07T23:24:42.816Z,18.27
2023-04-07T23:27:15.802Z,13.70
2023-04-07T23:29:46.041Z,18.03
2023-04-07T23:32:16.424Z,15.83
2023-04-07T23:34:46.801Z,15.83
2023-04-07T23:37:19.849Z,14.93
2023-04-07T23:39:50.057Z,19.83
2023-04-07T23:42:20.236Z,17.47
2023-04-07T23:44:50.437Z,20.17
2023-04-07T23:47:20.713Z,18.33
2023-04-07T23:49:50.984Z,19.37
2023-04-07T23:52:24.261Z,17.53
2023-04-07T23:54:54.456Z,16.77
2023-04-07T23:57:24.754Z,17.93
2023-04-07T23:59:55.131Z,20.13
